Time;durP1;ratioP1;P1;durP2;ratioP2;P2;SDS_P1;SDS_P2;PMS_P1;PMS_P2;Temp;Humidity;BMP_temperature;BMP_pressure;BME280_temperature;BME280_humidity;BME280_pressure;Samples;Min_cycle;Max_cycle;Signal;HPM_P1;HPM_P2
2023/02/04 00:01:49;;;;;;;17.63;4.53;;;;;;;8.57;100.00;103166.53;5253704;28;20079;-77
2023/02/04 00:04:21;;;;;;;16.42;4.03;;;;;;;8.60;100.00;103164.66;5257528;28;20029;-77
2023/02/04 00:06:52;;;;;;;16.20;3.60;;;;;;;8.61;100.00;103165.50;5255674;28;20028;-77
2023/02/04 00:09:23;;;;;;;15.27;4.10;;;;;;;8.62;100.00;103175.03;5255151;28;20182;-77
2023/02/04 00:11:54;;;;;;;18.15;3.60;;;;;;;8.60;100.00;103172.50;5255946;28;20084;-77
2023/02/04 00:14:26;;;;;;;13.88;3.55;;;;;;;8.63;100.00;103169.75;5254787;28;20365;-77
2023/02/04 00:16:57;;;;;;;11.90;3.45;;;;;;;8.57;100.00;103158.72;5255421;28;20044;-77
2023/02/04 00:19:28;;;;;;;14.93;3.28;;;;;;;8.63;100.00;103174.97;5247007;28;20028;-77
2023/02/04 00:22:00;;;;;;;13.10;3.50;;;;;;;8.61;100.00;103165.50;5256084;28;20028;-77
2023/02/04 00:24:31;;;;;;;15.90;4.05;;;;;;;8.66;100.00;103172.25;5255147;28;20029;-77
2023/02/04 00:27:04;;;;;;;15.07;3.40;;;;;;;8.64;100.00;103181.06;5254205;28;20051;-77
2023/02/04 00:29:35;;;;;;;14.77;3.45;;;;;;;8.62;100.00;103177.66;5256150;28;20029;-77
2023/02/04 00:32:07;;;;;;;20.90;4.28;;;;;;;8.61;100.00;103182.03;5256816;28;20025;-77
2023/02/04 00:34:38;;;;;;;15.02;4.25;;;;;;;8.62;100.00;103185.50;5256383;28;20035;-77
2023/02/04 00:37:09;;;;;;;15.70;4.10;;;;;;;8.59;100.00;103177.78;5255664;28;20029;-77
2023/02/04 00:39:40;;;;;;;12.50;3.47;;;;;;;8.64;100.00;103187.16;5256397;28;20107;-77
2023/02/04 00:42:12;;;;;;;13.88;3.95;;;;;;;8.61;100.00;103170.75;5256384;28;20037;-77
2023/02/04 00:44:43;;;;;;;13.88;4.03;;;;;;;8.63;100.00;103193.25;5255623;28;20060;-78
2023/02/04 00:47:14;;;;;;;18.75;4.45;;;;;;;8.61;100.00;103195.09;5256614;28;20078;-77
2023/02/04 00:49:46;;;;;;;16.45;4.57;;;;;;;8.57;100.00;103190.06;5246627;28;20037;-77
2023/02/04 00:52:17;;;;;;;17.15;3.58;;;;;;;8.61;100.00;103194.25;5255197;28;20033;-77
2023/02/04 00:54:48;;;;;;;15.85;4.47;;;;;;;8.61;100.00;103197.72;5254049;28;20028;-77
2023/02/04 00:57:20;;;;;;;18.55;4.18;;;;;;;8.60;100.00;103190.78;5254210;28;20035;-77
2023/02/04 00:59:51;;;;;;;14.27;4.30;;;;;;;8.63;100.00;103189.81;5255850;28;20382;-77
2023/02/04 01:02:22;;;;;;;13.48;3.80;;;;;;;8.61;100.00;103194.25;5254753;28;20033;-77
2023/02/04 01:04:54;;;;;;;12.45;3.45;;;;;;;8.55;100.00;103192.72;5252695;28;20080;-77
2023/02/04 01:07:25;;;;;;;19.92;4.72;;;;;;;8.56;100.00;103196.19;5254113;28;20572;-77
2023/02/04 01:09:56;;;;;;;11.27;3.58;;;;;;;8.58;100.00;103199.59;5255085;28;20532;-77
2023/02/04 01:12:27;;;;;;;14.48;3.90;;;;;;;8.53;100.00;103191.94;5254801;28;20537;-77
2023/02/04 01:14:59;;;;;;;15.38;5.38;;;;;;;8.55;100.00;103190.09;5251925;28;20333;-77
2023/02/04 01:17:30;;;;;;;14.95;4.47;;;;;;;8.51;100.00;103197.22;5253759;28;20081;-77
2023/02/04 01:20:01;;;;;;;12.70;4.18;;;;;;;8.56;100.00;103209.25;5253524;28;20470;-77
2023/02/04 01:22:33;;;;;;;12.95;4.30;;;;;;;8.48;100.00;103201.69;5254948;28;20040;-77
2023/02/04 01:25:05;;;;;;;15.13;4.18;;;;;;;8.53;100.00;103205.00;5255744;28;20029;-77
2023/02/04 01:27:37;;;;;;;20.58;5.45;;;;;;;8.50;100.00;103211.19;5255173;28;20036;-77
2023/02/04 01:30:09;;;;;;;17.23;4.32;;;;;;;8.49;100.00;103209.50;5255994;28;20036;-77
2023/02/04 01:32:40;;;;;;;18.27;4.88;;;;;;;8.55;100.00;103211.00;5254051;28;20032;-77
2023/02/04 01:35:12;;;;;;;18.50;4.50;;;;;;;8.57;100.00;103216.19;5255064;28;20048;-77
2023/02/04 01:37:43;;;;;;;14.93;4.32;;;;;;;8.48;100.00;103223.44;5255053;28;20024;-77
2023/02/04 01:40:14;;;;;;;19.42;5.07;;;;;;;8.49;100.00;103230.41;5254487;28;20048;-78
2023/02/04 01:42:45;;;;;;;14.02;4.50;;;;;;;8.43;100.00;103220.16;5253332;28;20024;-77
2023/02/04 01:45:17;;;;;;;14.77;4.32;;;;;;;8.52;100.00;103237.25;5255326;28;20056;-77
2023/02/04 01:47:48;;;;;;;17.08;4.88;;;;;;;8.49;100.00;103234.78;5254243;28;20159;-77
2023/02/04 01:50:20;;;;;;;21.42;5.32;;;;;;;8.41;100.00;103224.63;5254052;28;20035;-77
2023/02/04 01:52:51;;;;;;;15.68;5.07;;;;;;;8.47;100.00;103234.81;5254242;28;20027;-78
2023/02/04 01:55:27;;;;;;;17.20;4.68;;;;;;;8.50;100.00;103237.31;5255144;28;20108;-77
2023/02/04 01:57:59;;;;;;;16.67;5.40;;;;;;;8.38;100.00;103237.78;5255023;28;20016;-78
2023/02/04 02:00:31;;;;;;;14.18;4.82;;;;;;;8.45;100.00;103239.25;5253738;28;20081;-77
2023/02/04 02:03:03;;;;;;;15.75;5.22;;;;;;;8.46;100.00;103240.09;5253190;28;20048;-77
2023/02/04 02:05:43;;;;;;;18.15;5.50;;;;;;;8.55;100.00;103241.50;5255104;28;20543;-77
2023/02/04 02:08:15;;;;;;;16.48;5.20;;;;;;;8.38;100.00;103237.78;5254328;28;20516;-77
2023/02/04 02:10:48;;;;;;;18.80;5.77;;;;;;;8.49;100.00;103253.91;5254693;28;20419;-77
2023/02/04 02:13:19;;;;;;;17.05;5.50;;;;;;;8.45;100.00;103249.72;5248449;28;20032;-77
2023/02/04 02:15:50;;;;;;;18.63;6.50;;;;;;;8.40;100.00;103245.53;5248328;28;20020;-78
2023/02/04 02:18:24;;;;;;;15.68;5.93;;;;;;;8.40;100.00;103243.78;5254328;28;20053;-77
2023/02/04 02:20:56;;;;;;;;;;;;;;;9.04;100.00;103250.91;5254204;28;20529;-78
2023/02/04 02:23:44;;;;;;;19.33;6.10;;;;;;;8.50;100.00;103245.16;5252606;28;19920;-77
2023/02/04 02:26:18;;;;;;;17.70;5.63;;;;;;;8.35;100.00;103230.03;5254721;28;20543;-77
2023/02/04 02:28:50;;;;;;;13.68;5.32;;;;;;;8.29;100.00;103243.28;5253794;28;20029;-77
2023/02/04 02:31:22;;;;;;;20.33;5.65;;;;;;;8.24;100.00;103243.47;5254138;28;20513;-78
2023/02/04 02:33:53;;;;;;;19.58;5.90;;;;;;;8.19;100.00;103241.94;5253541;28;20033;-77
2023/02/04 02:36:24;;;;;;;17.15;5.20;;;;;;;8.13;100.00;103250.00;5255141;28;20516;-77
2023/02/04 02:38:57;;;;;;;13.73;5.88;;;;;;;8.04;100.00;103249.41;5253231;28;20021;-78
2023/02/04 02:41:29;;;;;;;14.68;5.18;;;;;;;8.07;100.00;103253.69;5253895;28;20037;-78
2023/02/04 02:44:01;;;;;;;18.70;6.03;;;;;;;8.05;100.00;103245.03;5253366;28;20031;-78
2023/02/04 02:46:32;;;;;;;13.50;5.53;;;;;;;7.99;100.00;103255.69;5254680;28;20471;-78
2023/02/04 02:49:03;;;;;;;17.15;5.13;;;;;;;7.94;100.00;103262.84;5253050;28;20079;-78
2023/02/04 02:51:35;;;;;;;18.35;4.65;;;;;;;7.82;100.00;103251.06;5253029;28;20116;-78
2023/02/04 02:54:18;;;;;;;16.08;5.07;;;;;;;8.01;100.00;103257.34;5252625;28;20439;-78
2023/02/04 02:56:50;;;;;;;22.73;5.15;;;;;;;7.90;100.00;103253.41;5253112;28;20570;-77
2023/02/04 02:59:22;;;;;;;18.42;5.05;;;;;;;7.76;100.00;103259.94;5254573;28;20104;-77
2023/02/04 03:02:00;;;;;;;13.02;4.32;;;;;;;7.86;100.00;103254.44;5253194;28;20024;-78
2023/02/04 03:04:36;;;;;;;17.73;4.43;;;;;;;7.78;100.00;103265.13;5252051;28;20066;-78
2023/02/04 03:07:09;;;;;;;17.17;4.80;;;;;;;7.71;100.00;103271.47;5244090;28;20056;-77
2023/02/04 03:09:40;;;;;;;13.40;4.45;;;;;;;7.59;100.00;103256.22;5253061;28;20083;-77
2023/02/04 03:12:12;;;;;;;15.48;4.47;;;;;;;7.62;100.00;103271.78;5254094;28;20504;-78
2023/02/04 03:14:43;;;;;;;14.45;3.78;;;;;;;7.48;100.00;103272.22;5251438;28;20024;-78
2023/02/04 03:17:14;;;;;;;13.95;3.95;;;;;;;7.34;100.00;103262.25;5253694;28;20112;-78
2023/02/04 03:19:46;;;;;;;13.25;5.00;;;;;;;7.45;100.00;103273.19;5254141;28;20414;-78
2023/02/04 03:22:17;;;;;;;16.02;5.03;;;;;;;7.42;100.00;103267.19;5252627;28;20049;-78
2023/02/04 03:24:48;;;;;;;15.50;4.43;;;;;;;7.37;100.00;103266.50;5253086;28;20393;-78
2023/02/04 03:27:20;;;;;;;13.38;4.45;;;;;;;7.36;100.00;103283.06;5252519;28;20036;-78
2023/02/04 03:29:51;;;;;;;12.93;3.85;;;;;;;7.29;100.00;103280.66;5252287;28;20035;-77
2023/02/04 03:32:22;;;;;;;16.60;3.88;;;;;;;7.24;100.00;103292.16;5253717;28;20120;-77
2023/02/04 03:34:54;;;;;;;13.10;3.63;;;;;;;7.17;100.00;103299.28;5254687;28;20115;-77
2023/02/04 03:37:25;;;;;;;13.43;4.05;;;;;;;7.09;100.00;103300.44;5255548;28;20433;-77
2023/02/04 03:39:56;;;;;;;13.30;3.63;;;;;;;7.05;100.00;103303.13;5256553;28;20058;-78
2023/02/04 03:42:27;;;;;;;10.43;3.80;;;;;;;6.96;100.00;103298.19;5258429;28;20474;-76
2023/02/04 03:44:59;;;;;;;14.75;4.32;;;;;;;6.94;100.00;103307.81;5254011;28;20035;-77
2023/02/04 03:47:30;;;;;;;15.00;4.22;;;;;;;6.83;100.00;103294.25;5252343;28;20112;-78
2023/02/04 03:50:02;;;;;;;17.10;4.63;;;;;;;6.79;100.00;103296.09;5253426;28;20033;-78
2023/02/04 03:52:33;;;;;;;14.20;4.00;;;;;;;6.82;100.00;103310.78;5253275;28;20029;-78
2023/02/04 03:55:05;;;;;;;15.20;4.32;;;;;;;6.79;100.00;103301.31;5275711;23;20054;-73
2023/02/04 03:57:36;;;;;;;14.13;4.20;;;;;;;6.77;100.00;103308.31;5280755;28;20063;-73
2023/02/04 04:00:09;;;;;;;12.23;3.50;;;;;;;6.77;100.00;103308.31;5284552;28;20104;-73
2023/02/04 04:02:40;;;;;;;19.43;4.77;;;;;;;6.73;100.00;103308.44;5284076;28;20409;-72
2023/02/04 04:05:12;;;;;;;13.32;4.45;;;;;;;6.70;100.00;103305.91;5283533;28;20286;-72
2023/02/04 04:07:43;;;;;;;13.27;4.20;;;;;;;6.68;100.00;103310.34;5284973;28;20111;-72
2023/02/04 04:10:15;;;;;;;13.43;4.20;;;;;;;6.58;100.00;103313.19;5284739;28;20479;-72
2023/02/04 04:12:46;;;;;;;12.02;4.57;;;;;;;6.53;100.00;103312.47;5282869;28;20370;-72
2023/02/04 04:15:17;;;;;;;12.82;4.47;;;;;;;6.49;100.00;103315.22;5286180;28;20024;-72
2023/02/04 04:17:49;;;;;;;13.68;4.80;;;;;;;6.44;100.00;103311.88;5285782;28;20024;-72
2023/02/04 04:20:24;;;;;;;13.30;4.40;;;;;;;6.44;100.00;103317.97;5285027;28;20040;-72
2023/02/04 04:22:55;;;;;;;12.95;4.35;;;;;;;6.43;100.00;103310.16;5285407;28;20025;-72
2023/02/04 04:25:26;;;;;;;17.50;4.65;;;;;;;6.44;100.00;103315.34;5285858;28;20029;-72
2023/02/04 04:27:58;;;;;;;13.18;4.90;;;;;;;6.49;100.00;103323.03;5283268;28;20028;-72
2023/02/04 04:30:29;;;;;;;14.57;4.15;;;;;;;6.46;100.00;103321.34;5284213;28;20028;-72
2023/02/04 04:33:00;;;;;;;13.85;4.32;;;;;;;6.41;100.00;103325.84;5284901;28;20029;-72
2023/02/04 04:35:32;;;;;;;15.07;5.60;;;;;;;6.35;100.00;103315.59;5286098;28;20073;-72
2023/02/04 04:38:03;;;;;;;12.10;4.55;;;;;;;6.38;100.00;103325.06;5284562;28;20069;-72
2023/02/04 04:40:34;;;;;;;12.82;4.32;;;;;;;6.40;100.00;103328.47;5284927;28;20028;-72
2023/02/04 04:43:06;;;;;;;14.98;5.13;;;;;;;6.41;100.00;103325.84;5284458;28;20111;-72
2023/02/04 04:45:37;;;;;;;18.75;4.60;;;;;;;6.39;100.00;103332.84;5284393;28;20089;-72
2023/02/04 04:48:08;;;;;;;14.57;5.03;;;;;;;6.45;100.00;103332.69;5283583;28;20150;-72
2023/02/04 04:50:40;;;;;;;15.32;5.40;;;;;;;6.46;100.00;103334.38;5288274;28;20092;-72
2023/02/04 04:53:11;;;;;;;17.67;5.07;;;;;;;6.53;100.00;103333.31;5289379;28;20027;-72
2023/02/04 04:55:42;;;;;;;16.02;5.30;;;;;;;6.58;100.00;103333.19;5287929;28;20097;-72
2023/02/04 04:58:14;;;;;;;13.63;4.70;;;;;;;6.59;100.00;103321.84;5288365;28;21829;-72
2023/02/04 05:00:45;;;;;;;14.48;5.50;;;;;;;6.67;100.00;103317.31;5287865;28;20097;-72
2023/02/04 05:03:16;;;;;;;19.80;5.78;;;;;;;6.69;100.00;103325.91;5287967;28;20028;-72
2023/02/04 05:05:47;;;;;;;14.52;5.32;;;;;;;6.77;100.00;103341.31;5284924;28;20028;-71
2023/02/04 05:08:19;;;;;;;19.23;5.40;;;;;;;6.81;100.00;103335.97;5288001;28;20019;-72
2023/02/04 05:10:51;;;;;;;19.52;6.32;;;;;;;6.87;100.00;103349.75;5287956;28;20120;-72
2023/02/04 05:13:24;;;;;;;18.73;5.93;;;;;;;6.93;100.00;103350.44;5288020;28;20404;-72
2023/02/04 05:15:55;;;;;;;20.10;6.25;;;;;;;6.96;100.00;103354.66;5287179;28;20803;-72
2023/02/04 05:18:26;;;;;;;19.70;6.28;;;;;;;7.03;100.00;103353.59;5286946;28;20062;-72
2023/02/04 05:20:57;;;;;;;22.00;6.50;;;;;;;7.10;100.00;103360.34;5287606;28;20472;-72
2023/02/04 05:23:29;;;;;;;16.48;6.32;;;;;;;7.05;100.00;103359.63;5286691;28;20435;-71
2023/02/04 05:26:00;;;;;;;17.67;7.40;;;;;;;7.03;100.00;103357.06;5287854;28;20495;-72
2023/02/04 05:28:31;;;;;;;21.02;7.25;;;;;;;7.10;100.00;103367.31;5288044;28;20475;-72
2023/02/04 05:31:03;;;;;;;24.60;8.15;;;;;;;7.10;100.00;103367.31;5287913;28;20040;-72
2023/02/04 05:33:34;;;;;;;19.88;7.50;;;;;;;7.10;100.00;103349.06;5285647;28;20096;-72
2023/02/04 05:36:05;;;;;;;15.85;7.57;;;;;;;7.11;100.00;103359.44;5289910;28;20028;-72
2023/02/04 05:38:37;;;;;;;18.67;7.47;;;;;;;7.13;100.00;103357.66;5286035;28;20024;-72
2023/02/04 05:41:08;;;;;;;19.38;8.35;;;;;;;7.08;100.00;103354.31;5287630;28;20109;-72
2023/02/04 05:43:39;;;;;;;20.83;8.02;;;;;;;7.07;100.00;103358.66;5287824;28;20111;-72
2023/02/04 05:46:11;;;;;;;19.65;8.15;;;;;;;7.05;100.00;103363.09;5286609;28;20110;-72
2023/02/04 05:48:42;;;;;;;25.05;8.23;;;;;;;7.02;100.00;103355.34;5287590;28;20081;-72
2023/02/04 05:51:13;;;;;;;21.42;8.75;;;;;;;7.03;100.00;103351.00;5286446;28;20024;-72
2023/02/04 05:53:44;;;;;;;25.17;8.88;;;;;;;7.07;100.00;103348.25;5285305;28;20077;-73
2023/02/04 05:56:16;;;;;;;18.05;8.55;;;;;;;7.04;100.00;103357.91;5287631;28;20147;-72
2023/02/04 05:58:48;;;;;;;22.75;8.32;;;;;;;7.03;100.00;103351.00;5283810;28;20032;-72
2023/02/04 06:01:19;;;;;;;22.08;9.07;;;;;;;6.94;100.00;103340.84;5286676;28;20020;-72
2023/02/04 06:03:50;;;;;;;22.48;8.90;;;;;;;6.98;100.00;103343.31;5284878;28;20032;-71
2023/02/04 06:06:21;;;;;;;21.35;8.45;;;;;;;6.98;100.00;103361.56;5285151;28;20115;-72
2023/02/04 06:08:53;;;;;;;21.38;8.70;;;;;;;6.96;100.00;103368.56;5287718;28;20048;-72
2023/02/04 06:11:24;;;;;;;25.52;8.63;;;;;;;7.00;100.00;103374.53;5287110;28;20036;-72
2023/02/04 06:13:55;;;;;;;19.98;8.90;;;;;;;6.69;100.00;103322.47;5287044;28;20020;-72
2023/02/04 06:16:27;;;;;;;23.33;9.68;;;;;;;7.01;100.00;103378.88;5286226;28;20028;-72
2023/02/04 06:18:58;;;;;;;16.15;8.95;;;;;;;7.06;100.00;103384.78;5287419;28;20027;-72
2023/02/04 06:21:29;;;;;;;20.58;9.02;;;;;;;7.07;100.00;103389.94;5286162;28;20031;-72
2023/02/04 06:24:00;;;;;;;19.77;8.55;;;;;;;7.07;100.00;103396.91;5284950;28;20092;-72
2023/02/04 06:26:32;;;;;;;23.55;8.88;;;;;;;7.14;100.00;103401.06;5283917;28;20800;-71
2023/02/04 06:29:03;;;;;;;26.15;9.85;;;;;;;7.10;100.00;103396.84;5284320;28;20023;-72
2023/02/04 06:31:37;;;;;;;23.58;9.80;;;;;;;7.18;100.00;103414.84;5286142;28;20031;-72
2023/02/04 06:34:08;;;;;;;25.25;10.10;;;;;;;7.20;100.00;103419.13;5286212;28;20073;-72
2023/02/04 06:36:39;;;;;;;21.25;9.40;;;;;;;7.18;100.00;103426.13;5286750;28;20020;-72
2023/02/04 06:39:11;;;;;;;20.02;9.50;;;;;;;7.16;100.00;103414.03;5285531;28;20020;-72
2023/02/04 06:41:42;;;;;;;19.67;8.38;;;;;;;7.22;100.00;103419.06;5285122;28;20119;-72
2023/02/04 06:44:13;;;;;;;26.02;10.05;;;;;;;7.21;100.00;103419.97;5286012;28;20477;-72
2023/02/04 06:46:45;;;;;;;18.48;9.05;;;;;;;7.25;100.00;103424.22;5286311;28;20485;-72
2023/02/04 06:49:16;;;;;;;19.30;9.27;;;;;;;7.27;100.00;103432.81;5284065;28;20043;-72
2023/02/04 06:51:48;;;;;;;21.35;9.02;;;;;;;7.29;100.00;103425.81;5285938;28;20028;-72
2023/02/04 06:54:19;;;;;;;26.33;10.75;;;;;;;7.29;100.00;103418.00;5284650;28;20059;-72
2023/02/04 06:56:51;;;;;;;20.58;9.27;;;;;;;7.21;100.00;103423.44;5283711;28;20531;-72
2023/02/04 06:59:24;;;;;;;18.73;9.43;;;;;;;7.28;100.00;103438.00;5284524;28;20114;-72
2023/02/04 07:01:55;;;;;;;14.82;8.20;;;;;;;7.31;100.00;103439.66;5281997;28;20040;-72
2023/02/04 07:04:26;;;;;;;25.67;9.60;;;;;;;7.22;100.00;103430.34;5283170;28;20119;-72
2023/02/04 07:06:58;;;;;;;22.08;9.60;;;;;;;7.16;100.00;103445.31;5281081;28;20036;-72
2023/02/04 07:09:29;;;;;;;19.73;9.00;;;;;;;7.13;100.00;103433.25;5284718;28;20111;-72
2023/02/04 07:12:00;;;;;;;21.23;9.80;;;;;;;7.22;100.00;103453.81;5285636;28;20051;-72
2023/02/04 07:14:32;;;;;;;23.73;9.90;;;;;;;7.21;100.00;103452.13;5286468;28;20032;-72
2023/02/04 07:17:03;;;;;;;18.27;9.55;;;;;;;7.10;100.00;103440.28;5286407;28;20032;-72
2023/02/04 07:19:35;;;;;;;23.67;10.20;;;;;;;7.14;100.00;103457.56;5285871;28;20024;-72
2023/02/04 07:22:06;;;;;;;20.13;9.55;;;;;;;7.17;100.00;103460.94;5285072;28;20024;-72
2023/02/04 07:24:37;;;;;;;28.25;10.82;;;;;;;7.16;100.00;103450.53;5285645;28;20028;-72
2023/02/04 07:27:09;;;;;;;18.58;9.70;;;;;;;7.16;100.00;103461.84;5286236;28;20541;-72
2023/02/04 07:29:41;;;;;;;23.53;10.80;;;;;;;7.17;100.00;103463.53;5285005;28;20045;-72
2023/02/04 07:32:12;;;;;;;23.13;10.88;;;;;;;7.21;100.00;103464.31;5285526;28;20107;-72
2023/02/04 07:34:44;;;;;;;28.63;11.02;;;;;;;7.24;100.00;103464.22;5286239;28;20028;-72
2023/02/04 07:37:15;;;;;;;27.20;11.57;;;;;;;7.25;100.00;103461.56;5285310;28;20369;-72
2023/02/04 07:39:46;;;;;;;25.13;10.88;;;;;;;7.29;100.00;103465.78;5278421;28;20115;-72
2023/02/04 07:42:18;;;;;;;24.02;10.40;;;;;;;7.30;100.00;103470.09;5284650;28;20033;-72
2023/02/04 07:44:49;;;;;;;26.73;11.45;;;;;;;7.34;100.00;103476.06;5284379;28;20043;-72
2023/02/04 07:47:20;;;;;;;26.35;10.85;;;;;;;7.38;100.00;103479.44;5284078;28;20088;-72
2023/02/04 07:49:55;;;;;;;28.80;12.68;;;;;;;7.40;100.00;103475.06;5282765;28;20025;-72
2023/02/04 07:52:26;;;;;;;22.88;11.68;;;;;;;7.40;100.00;103475.91;5282983;28;20024;-72
2023/02/04 07:54:58;;;;;;;25.77;11.93;;;;;;;7.37;100.00;103476.00;5285719;28;20098;-72
2023/02/04 07:57:30;;;;;;;25.70;11.57;;;;;;;7.45;100.00;103487.06;5285357;28;20033;-72
2023/02/04 08:00:01;;;;;;;20.05;10.40;;;;;;;7.51;100.00;103499.06;5284672;28;20056;-72
2023/02/04 08:02:32;;;;;;;21.67;11.13;;;;;;;7.53;100.00;103497.25;5284362;28;20037;-72
2023/02/04 08:05:04;;;;;;;28.33;11.50;;;;;;;7.57;100.00;103494.50;5280060;28;20027;-72
2023/02/04 08:07:35;;;;;;;26.02;12.65;;;;;;;7.62;100.00;103502.22;5285282;28;20070;-72
2023/02/04 08:10:08;;;;;;;30.33;12.27;;;;;;;7.63;100.00;103501.31;5285538;28;20028;-72
2023/02/04 08:12:39;;;;;;;22.03;12.50;;;;;;;7.66;100.00;103509.06;5284369;28;20032;-72
2023/02/04 08:15:10;;;;;;;24.73;11.50;;;;;;;7.67;100.00;103496.88;5283866;28;20051;-72
2023/02/04 08:17:42;;;;;;;27.92;12.73;;;;;;;7.63;100.00;103483.06;5284631;28;20028;-72
2023/02/04 08:20:13;;;;;;;25.67;12.20;;;;;;;7.72;100.00;103503.63;5278274;28;20034;-72
2023/02/04 08:22:44;;;;;;;33.85;12.82;;;;;;;7.78;100.00;103505.22;5284345;28;20399;-72
2023/02/04 08:25:16;;;;;;;36.05;13.50;;;;;;;7.80;100.00;103506.91;5288451;28;20526;-72
2023/02/04 08:27:47;;;;;;;37.50;14.40;;;;;;;7.83;100.00;103513.75;5286607;28;20517;-72
2023/02/04 08:30:18;;;;;;;32.45;14.00;;;;;;;7.86;100.00;103511.06;5288276;28;20356;-72
2023/02/04 08:32:50;;;;;;;34.50;14.55;;;;;;;7.90;100.00;103517.88;5290607;28;20145;-72
2023/02/04 08:35:21;;;;;;;30.88;14.48;;;;;;;7.92;100.00;103515.25;5288060;28;20378;-72
2023/02/04 08:37:52;;;;;;;38.95;15.77;;;;;;;7.99;100.00;103522.84;5287458;28;20485;-72
2023/02/04 08:40:23;;;;;;;37.92;15.55;;;;;;;8.02;100.00;103520.13;5286476;28;20505;-72
2023/02/04 08:42:55;;;;;;;36.75;16.70;;;;;;;8.05;100.00;103517.41;5289581;28;20554;-72
2023/02/04 08:45:26;;;;;;;34.63;15.90;;;;;;;8.04;100.00;103517.47;5287027;28;20374;-72
2023/02/04 08:47:57;;;;;;;33.28;15.25;;;;;;;8.14;100.00;103515.41;5285607;28;20115;-72
2023/02/04 08:50:29;;;;;;;34.65;16.27;;;;;;;8.18;100.00;103522.25;5286061;28;21013;-72
2023/02/04 08:53:01;;;;;;;28.85;15.55;;;;;;;8.17;100.00;103526.63;5284639;28;20028;-73
2023/02/04 08:55:32;;;;;;;31.77;16.05;;;;;;;8.25;100.00;103528.97;5286391;28;20044;-73
2023/02/04 08:58:03;;;;;;;30.08;16.17;;;;;;;8.27;100.00;103528.03;5287221;28;20032;-72
2023/02/04 09:00:35;;;;;;;38.03;18.08;;;;;;;8.30;100.00;103527.09;5283203;28;20174;-72
2023/02/04 09:03:06;;;;;;;33.88;17.70;;;;;;;8.36;100.00;103529.50;5285779;28;20016;-72
2023/02/04 09:05:37;;;;;;;41.15;19.00;;;;;;;8.29;100.00;103525.38;5280765;28;20035;-72
2023/02/04 09:08:09;;;;;;;39.97;18.60;;;;;;;8.41;100.00;103537.19;5283590;28;20027;-73
2023/02/04 09:10:40;;;;;;;39.78;19.20;;;;;;;8.44;100.00;103544.94;5280644;28;20124;-72
2023/02/04 09:13:13;;;;;;;44.92;20.15;;;;;;;8.49;100.00;103543.91;5286608;28;20028;-72
2023/02/04 09:15:44;;;;;;;41.17;20.52;;;;;;;8.56;100.00;103543.69;5286196;28;20024;-72
2023/02/04 09:18:16;;;;;;;41.10;19.48;;;;;;;8.60;100.00;103546.16;5289418;28;20020;-72
2023/02/04 09:20:48;;;;;;;40.40;20.15;;;;;;;8.59;100.00;103541.81;5287148;28;20107;-72
2023/02/04 09:23:20;;;;;;;41.45;20.42;;;;;;;8.64;100.00;103546.94;5284652;28;20100;-72
2023/02/04 09:25:51;;;;;;;41.58;20.63;;;;;;;8.67;100.00;103552.03;5284348;28;20028;-72
2023/02/04 09:28:22;;;;;;;43.20;20.58;;;;;;;8.71;100.00;103545.78;5279134;28;20036;-72
2023/02/04 09:30:54;;;;;;;46.50;21.65;;;;;;;8.73;100.00;103559.66;5287511;28;20051;-72
2023/02/04 09:33:25;;;;;;;56.22;22.08;;;;;;;8.75;100.00;103556.13;5285630;28;20028;-72
2023/02/04 09:35:56;;;;;;;46.85;21.75;;;;;;;8.82;100.00;103558.50;5286056;28;20114;-72
2023/02/04 09:38:28;;;;;;;52.45;22.92;;;;;;;8.92;100.00;103559.91;5287323;28;20024;-72
2023/02/04 09:41:03;;;;;;;54.30;23.15;;;;;;;9.00;100.00;103553.50;5289148;28;20052;-72
2023/02/04 09:43:39;;;;;;;49.47;23.15;;;;;;;9.04;100.00;103556.84;5287585;28;20093;-72
2023/02/04 09:46:27;;;;;;;44.15;21.15;;;;;;;9.18;100.00;103559.00;5288925;28;20106;-72
2023/02/04 09:48:58;;;;;;;48.35;23.27;;;;;;;9.00;100.00;103555.25;5283407;28;20480;-72
2023/02/04 09:51:33;;;;;;;48.45;24.40;;;;;;;9.08;100.00;103570.69;5286570;28;20108;-73
2023/02/04 09:54:16;;;;;;;46.80;23.88;;;;;;;9.25;100.00;103557.88;5284971;28;20425;-72
2023/02/04 09:56:49;;;;;;;47.72;22.60;;;;;;;9.15;100.00;103564.31;5284158;28;20103;-72
2023/02/04 09:59:22;;;;;;;40.33;20.50;;;;;;;9.21;100.00;103564.13;5283338;28;20021;-72
2023/02/04 10:01:56;;;;;;;;;;;;;;;9.83;100.00;103570.56;5286166;28;20028;-72
2023/02/04 10:04:27;;;;;;;48.95;21.83;;;;;;;9.34;100.00;103564.53;5284467;28;19991;-72
2023/02/04 10:06:59;;;;;;;46.80;21.10;;;;;;;9.36;100.00;103567.97;5283434;28;20497;-72
2023/02/04 10:09:30;;;;;;;42.40;20.15;;;;;;;9.35;100.00;103581.94;5310139;22;20048;-70
2023/02/04 10:12:01;;;;;;;39.90;20.52;;;;;;;9.43;100.00;103578.16;5289342;28;20055;-71
2023/02/04 10:14:33;;;;;;;41.20;21.77;;;;;;;9.48;100.00;103578.81;5294127;28;20027;-70
2023/02/04 10:17:05;;;;;;;49.45;20.10;;;;;;;9.54;100.00;103580.34;5295223;28;20028;-70
2023/02/04 10:19:36;;;;;;;45.92;22.77;;;;;;;9.56;100.00;103575.06;5296291;28;20016;-71
2023/02/04 10:22:17;;;;;;;37.90;18.85;;;;;;;9.74;100.00;103582.25;5294172;28;20141;-71
2023/02/04 10:24:48;;;;;;;35.88;17.52;;;;;;;9.59;100.00;103585.44;5295428;28;20059;-70
2023/02/04 10:27:19;;;;;;;36.85;18.08;;;;;;;9.64;100.00;103581.72;5295051;28;20031;-69
2023/02/04 10:29:55;;;;;;;30.40;15.77;;;;;;;9.79;100.00;103585.53;5293840;28;20456;-70
2023/02/04 10:32:32;;;;;;;30.48;16.65;;;;;;;9.87;100.00;103583.47;5293732;28;20042;-70
2023/02/04 10:35:04;;;;;;;33.88;17.25;;;;;;;9.90;100.00;103585.13;5291316;28;20036;-69
2023/02/04 10:37:35;;;;;;;30.02;17.08;;;;;;;10.01;100.00;103585.56;5295135;28;20035;-72
2023/02/04 10:40:26;;;;;;;33.67;14.13;;;;;;;10.32;100.00;103582.63;5294752;28;20475;-70
2023/02/04 10:42:58;;;;;;;28.80;11.43;;;;;;;10.10;100.00;103589.59;5293709;28;20397;-70
2023/02/04 10:45:30;;;;;;;29.30;10.13;;;;;;;10.22;100.00;103591.72;5294120;28;20031;-69
2023/02/04 10:48:02;;;;;;;34.42;11.27;;;;;;;10.13;100.00;103587.72;5294929;28;20032;-70
2023/02/04 10:50:34;;;;;;;30.23;12.07;;;;;;;10.21;100.00;103588.25;5294072;28;20073;-69
2023/02/04 10:55:59;;;;;;;31.60;11.02;;;;;;;10.35;100.00;103592.16;5294088;28;20063;-69
2023/02/04 10:58:31;;;;;;;30.83;11.50;;;;;;;10.37;100.00;103590.31;5292762;28;20060;-71
2023/02/04 11:01:02;;;;;;;30.65;11.43;;;;;;;10.36;100.00;103597.31;5291552;28;20029;-70
2023/02/04 11:03:36;;;;;;;31.58;11.10;;;;;;;10.42;100.00;103602.31;5292762;28;20134;-70
2023/02/04 11:06:15;;;;;;;29.63;12.95;;;;;;;10.52;100.00;103594.06;5291535;28;20134;-70
2023/02/04 11:08:49;;;;;;;31.58;11.13;;;;;;;10.52;100.00;103594.94;5292633;28;20088;-69
2023/02/04 11:11:24;;;;;;;;;;;;;;;11.27;100.00;103589.13;5293850;28;20511;-71
2023/02/04 11:13:55;;;;;;;29.50;11.77;;;;;;;10.76;100.00;103587.84;5309140;28;19919;-70
2023/02/04 11:16:30;;;;;;;26.67;10.63;;;;;;;10.92;100.00;103588.03;5293943;28;20396;-71
2023/02/04 11:19:10;;;;;;;27.20;9.95;;;;;;;11.03;100.00;103585.81;5292059;28;20299;-72
2023/02/04 11:21:44;;;;;;;27.58;10.38;;;;;;;10.91;100.00;103581.06;5293177;28;20032;-71
2023/02/04 11:24:15;;;;;;;33.45;11.20;;;;;;;10.85;100.00;103587.44;5290998;28;20050;-70
2023/02/04 11:26:52;;;;;;;29.07;10.93;;;;;;;10.86;100.00;103586.50;5292830;28;20028;-72
2023/02/04 11:29:35;;;;;;;27.90;10.18;;;;;;;10.97;100.00;103586.06;5293194;28;20390;-70
2023/02/04 11:32:31;;;;;;;27.15;10.63;;;;;;;11.26;100.00;103599.72;5291982;28;20031;-69
2023/02/04 11:35:11;;;;;;;27.35;11.95;;;;;;;11.24;100.00;103588.41;5292767;28;20027;-70
2023/02/04 11:37:43;;;;;;;30.13;11.27;;;;;;;11.12;100.00;103587.19;5291842;28;20558;-72
2023/02/04 11:40:33;;;;;;;27.97;11.30;;;;;;;11.31;100.00;103587.22;5293477;28;20024;-70